Time;durP1;ratioP1;P1;durP2;ratioP2;P2;SDS_P1;SDS_P2;PMS_P1;PMS_P2;Temp;Humidity;BMP_temperature;BMP_pressure;BME280_temperature;BME280_humidity;BME280_pressure;Samples;Min_cycle;Max_cycle;Signal;HPM_P1;HPM_P2
2022/01/06 00:00:09;;;;;;;;;;;;;;;;;;1008069;29;1122;-23
2022/01/06 00:00:42;;;;;;;;;;;;;;;;;;1007847;29;951;-23
2022/01/06 00:01:13;;;;;;;;;;;;;;;;;;1007856;29;1090;-23
2022/01/06 00:01:44;;;;;;;;;;;;;;;;;;1007868;29;1172;-23
2022/01/06 00:02:15;;;;;;;;;;;;;;;;;;1007768;29;1173;-23
2022/01/06 00:02:46;;;;;;;;;;;;;;;;;;1008007;29;1218;-23
2022/01/06 00:03:16;;;;;;;;;;;;;;;;;;1008785;29;1160;-23
2022/01/06 00:03:47;;;;;;;;;;;;;;;;;;1009331;29;1160;-23
2022/01/06 00:04:18;;;;;;;;;;;;;;;;;;1010098;29;1231;-23
2022/01/06 00:04:49;;;;;;;;;;;;;;;;;;1009586;29;1184;-23
2022/01/06 00:05:22;;;;;;;;;;;;;;;;;;1007763;29;1188;-23
2022/01/06 00:05:54;;;;;;;;;;;;;;;;;;1007794;29;1125;-23
2022/01/06 00:06:25;;;;;;;;;;;;;;;;;;1007683;29;1158;-23
2022/01/06 00:06:55;;;;;;;;;;;;;;;;;;1007997;29;1118;-24
2022/01/06 00:07:25;;;;;;;;;;;;;;;;;;1007847;29;1161;-23
2022/01/06 00:07:56;;;;;;;;;;;;;;;;;;1007950;29;1188;-23
2022/01/06 00:08:26;;;;;;;;;;;;;;;;;;1007779;29;1208;-23
2022/01/06 00:08:59;;;;;;;;;;;;;;;;;;1007805;29;1224;-23
2022/01/06 00:09:29;;;;;;;;;;;;;;;;;;1007880;29;1208;-23
2022/01/06 00:10:00;;;;;;;;;;;;;;;;;;1007658;29;1137;-23
2022/01/06 00:10:31;;;;;;;;;;;;;;;;;;1007883;29;1153;-23
2022/01/06 00:11:03;;;;;;;;;;;;;;;;;;1007866;29;1196;-23
2022/01/06 00:11:33;;;;;;;;;;;;;;;;;;1007805;29;1117;-23
2022/01/06 00:12:05;;;;;;;;;;;;;;;;;;1003538;29;1240;-23
2022/01/06 00:13:35;;;;;;;;;;;;;;;;;;1001566;29;1208;-23
2022/01/06 00:14:17;;;;;;;;;;;;;;;;;;1005825;29;1098;-23
2022/01/06 00:15:25;;;;;;;;;;;;;;;;;;1005440;29;1113;-23
2022/01/06 00:16:37;;;;;;;;;;;;;;;;;;1004290;29;1087;-23
2022/01/06 00:23:20;;;;;;;;;;;;;;;;;;1007807;29;916;-23
2022/01/06 00:23:50;;;;;;;;;;;;;;;;;;1003747;29;903;-23
2022/01/06 00:24:21;;;;;;;;;;;;;;;;;;1003563;29;1749;-23
2022/01/06 00:24:51;;;;;;;;;;;;;;;;;;1003538;29;880;-23
2022/01/06 00:25:22;;;;;;;;;;;;;;;;;;1003723;29;808;-23
2022/01/06 00:25:52;;;;;;;;;;;;;;;;;;1007768;29;840;-23
2022/01/06 00:26:22;;;;;;;;;;;;;;;;;;1007816;29;895;-23
2022/01/06 00:26:53;;;;;;;;;;;;;;;;;;1007897;29;841;-23
2022/01/06 00:27:23;;;;;;;;;;;;;;;;;;1007690;29;918;-23
2022/01/06 00:27:54;;;;;;;;;;;;;;;;;;1003578;29;1192;-23
2022/01/06 00:28:24;;;;;;;;;;;;;;;;;;1003510;29;1348;-23
2022/01/06 00:28:54;;;;;;;;;;;;;;;;;;1003650;29;883;-23
2022/01/06 00:29:25;;;;;;;;;;;;;;;;;;1003641;29;915;-23
2022/01/06 00:29:55;;;;;;;;;;;;;;;;;;1007686;29;1633;-24
2022/01/06 00:30:25;;;;;;;;;;;;;;;;;;1007789;29;870;-28
2022/01/06 00:30:56;;;;;;;;;;;;;;;;;;1007830;29;931;-23
2022/01/06 00:31:26;;;;;;;;;;;;;;;;;;1007585;29;943;-23
2022/01/06 00:31:57;;;;;;;;;;;;;;;;;;1007880;29;939;-23
2022/01/06 00:32:28;;;;;;;;;;;;;;;;;;1007688;29;895;-23
2022/01/06 00:32:58;;;;;;;;;;;;;;;;;;1007784;29;868;-23
2022/01/06 00:33:30;;;;;;;;;;;;;;;;;;1007786;29;863;-23
2022/01/06 00:34:00;;;;;;;;;;;;;;;;;;1007693;29;805;-23
2022/01/06 00:34:30;;;;;;;;;;;;;;;;;;1007913;29;939;-23
2022/01/06 00:35:01;;;;;;;;;;;;;;;;;;1007614;29;963;-23
2022/01/06 00:35:31;;;;;;;;;;;;;;;;;;1007711;29;959;-23
2022/01/06 00:36:02;;;;;;;;;;;;;;;;;;1007647;29;1980;-23
2022/01/06 00:36:33;;;;;;;;;;;;;;;;;;1007739;29;943;-23
2022/01/06 00:37:03;;;;;;;;;;;;;;;;;;1007771;29;1046;-23
2022/01/06 00:37:34;;;;;;;;;;;;;;;;;;1007642;29;1828;-27
2022/01/06 00:38:08;;;;;;;;;;;;;;;;;;1007666;29;867;-23
2022/01/06 00:38:38;;;;;;;;;;;;;;;;;;1007725;29;998;-23
2022/01/06 00:39:09;;;;;;;;;;;;;;;;;;1007424;29;900;-23
2022/01/06 00:39:40;;;;;;;;;;;;;;;;;;1007397;29;931;-23
2022/01/06 00:40:10;;;;;;;;;;;;;;;;;;1007469;29;844;-23
2022/01/06 00:40:41;;;;;;;;;;;;;;;;;;1007331;29;814;-23
2022/01/06 00:41:11;;;;;;;;;;;;;;;;;;1007864;29;887;-23
2022/01/06 00:41:41;;;;;;;;;;;;;;;;;;1007612;29;812;-23
2022/01/06 00:42:13;;;;;;;;;;;;;;;;;;1007750;29;855;-23
2022/01/06 00:42:43;;;;;;;;;;;;;;;;;;1007732;29;888;-23
2022/01/06 00:43:14;;;;;;;;;;;;;;;;;;1007107;29;840;-23
2022/01/06 00:43:44;;;;;;;;;;;;;;;;;;1007129;29;1732;-23
2022/01/06 00:44:14;;;;;;;;;;;;;;;;;;1007419;29;812;-23
2022/01/06 00:44:44;;;;;;;;;;;;;;;;;;1007365;29;950;-23
2022/01/06 00:45:15;;;;;;;;;;;;;;;;;;1007830;29;939;-23
2022/01/06 00:45:45;;;;;;;;;;;;;;;;;;1007462;29;777;-23
2022/01/06 00:46:15;;;;;;;;;;;;;;;;;;1007862;29;985;-23
2022/01/06 00:46:46;;;;;;;;;;;;;;;;;;1007707;29;903;-23
2022/01/06 00:47:20;;;;;;;;;;;;;;;;;;1007698;29;1014;-23
2022/01/06 00:47:50;;;;;;;;;;;;;;;;;;1007780;29;943;-23
2022/01/06 00:48:21;;;;;;;;;;;;;;;;;;1007641;29;824;-23
2022/01/06 00:48:51;;;;;;;;;;;;;;;;;;1007745;29;1528;-23
2022/01/06 00:49:22;;;;;;;;;;;;;;;;;;1007746;29;946;-23
2022/01/06 00:49:52;;;;;;;;;;;;;;;;;;1007674;29;931;-23
2022/01/06 00:50:23;;;;;;;;;;;;;;;;;;1007655;29;934;-23
2022/01/06 00:50:53;;;;;;;;;;;;;;;;;;1007706;29;872;-23
2022/01/06 00:51:23;;;;;;;;;;;;;;;;;;1007688;29;895;-23
2022/01/06 00:51:54;;;;;;;;;;;;;;;;;;1007782;29;895;-25
2022/01/06 00:52:24;;;;;;;;;;;;;;;;;;1007457;29;1006;-23
2022/01/06 00:52:54;;;;;;;;;;;;;;;;;;1007775;29;922;-23
2022/01/06 00:53:25;;;;;;;;;;;;;;;;;;1007639;29;947;-23
2022/01/06 00:53:56;;;;;;;;;;;;;;;;;;1007706;29;954;-23
2022/01/06 00:54:26;;;;;;;;;;;;;;;;;;1007535;29;915;-23
2022/01/06 00:54:57;;;;;;;;;;;;;;;;;;1007605;29;860;-23
2022/01/06 00:55:27;;;;;;;;;;;;;;;;;;1007768;29;895;-23
2022/01/06 00:55:58;;;;;;;;;;;;;;;;;;1007471;29;1980;-23
2022/01/06 00:56:28;;;;;;;;;;;;;;;;;;1007591;29;898;-23
2022/01/06 00:56:58;;;;;;;;;;;;;;;;;;1007804;29;891;-23
2022/01/06 00:57:29;;;;;;;;;;;;;;;;;;1007648;29;804;-23
2022/01/06 00:58:00;;;;;;;;;;;;;;;;;;1007726;29;1006;-23
2022/01/06 00:58:30;;;;;;;;;;;;;;;;;;1007749;29;994;-23
2022/01/06 00:59:00;;;;;;;;;;;;;;;;;;1007578;29;871;-23
2022/01/06 00:59:30;;;;;;;;;;;;;;;;;;1007491;29;797;-23
2022/01/06 01:00:01;;;;;;;;;;;;;;;;;;1007260;29;955;-24
2022/01/06 01:00:38;;;;;;;;;;;;;;;;;;1007285;29;951;-23
2022/01/06 01:01:09;;;;;;;;;;;;;;;;;;1007600;29;883;-23
2022/01/06 01:01:39;;;;;;;;;;;;;;;;;;1007537;29;907;-23
2022/01/06 01:02:10;;;;;;;;;;;;;;;;;;1007726;29;911;-23
2022/01/06 01:02:40;;;;;;;;;;;;;;;;;;1007521;29;808;-23
2022/01/06 01:03:15;;;;;;;;;;;;;;;;;;1007744;29;840;-23
2022/01/06 01:03:45;;;;;;;;;;;;;;;;;;1007596;29;843;-23
2022/01/06 01:04:15;;;;;;;;;;;;;;;;;;1007615;29;974;-23
2022/01/06 01:04:47;;;;;;;;;;;;;;;;;;1007514;29;934;-23
2022/01/06 01:05:17;;;;;;;;;;;;;;;;;;1007660;29;923;-23
2022/01/06 01:05:50;;;;;;;;;;;;;;;;;;1007469;29;789;-23
2022/01/06 01:06:20;;;;;;;;;;;;;;;;;;1007692;29;978;-23
2022/01/06 01:06:50;;;;;;;;;;;;;;;;;;1007507;29;931;-23
2022/01/06 01:07:21;;;;;;;;;;;;;;;;;;1007721;29;967;-23
2022/01/06 01:07:51;;;;;;;;;;;;;;;;;;1007591;29;934;-23
2022/01/06 01:08:25;;;;;;;;;;;;;;;;;;1007663;29;947;-23
2022/01/06 01:08:56;;;;;;;;;;;;;;;;;;1007662;29;982;-23
2022/01/06 01:09:26;;;;;;;;;;;;;;;;;;1007582;29;836;-24
2022/01/06 01:09:57;;;;;;;;;;;;;;;;;;1007627;29;951;-23
2022/01/06 01:10:27;;;;;;;;;;;;;;;;;;1007784;29;887;-23
2022/01/06 01:10:57;;;;;;;;;;;;;;;;;;1007470;29;824;-23
2022/01/06 01:11:28;;;;;;;;;;;;;;;;;;1007769;29;959;-23
2022/01/06 01:12:03;;;;;;;;;;;;;;;;;;1007583;29;919;-23
2022/01/06 01:12:34;;;;;;;;;;;;;;;;;;1007682;29;950;-23
2022/01/06 01:13:04;;;;;;;;;;;;;;;;;;1007612;29;823;-23
2022/01/06 01:13:43;;;;;;;;;;;;;;;;;;1007678;29;952;-23
2022/01/06 01:14:19;;;;;;;;;;;;;;;;;;1007717;29;849;-23
2022/01/06 01:14:58;;;;;;;;;;;;;;;;;;1003772;29;931;-23
2022/01/06 01:15:31;;;;;;;;;;;;;;;;;;1003892;29;827;-23
2022/01/06 01:16:10;;;;;;;;;;;;;;;;;;1003543;29;1903;-23
2022/01/06 01:16:41;;;;;;;;;;;;;;;;;;1003761;29;915;-23
2022/01/06 01:17:15;;;;;;;;;;;;;;;;;;1003826;29;915;-23
2022/01/06 01:17:47;;;;;;;;;;;;;;;;;;1003684;29;891;-23
2022/01/06 01:18:19;;;;;;;;;;;;;;;;;;1007331;29;1076;-23
2022/01/06 01:18:50;;;;;;;;;;;;;;;;;;1007234;29;832;-23
2022/01/06 01:19:21;;;;;;;;;;;;;;;;;;1007267;29;1629;-23
2022/01/06 01:19:52;;;;;;;;;;;;;;;;;;1006951;29;899;-23
2022/01/06 01:20:22;;;;;;;;;;;;;;;;;;1003779;29;924;-23
2022/01/06 01:20:53;;;;;;;;;;;;;;;;;;1003870;29;840;-23
2022/01/06 01:21:26;;;;;;;;;;;;;;;;;;1003685;29;872;-23
2022/01/06 01:21:57;;;;;;;;;;;;;;;;;;1003673;29;844;-23
2022/01/06 01:22:27;;;;;;;;;;;;;;;;;;1003905;29;840;-23
2022/01/06 01:22:58;;;;;;;;;;;;;;;;;;999444;29;756;-23
2022/01/06 01:23:28;;;;;;;;;;;;;;;;;;999811;29;833;-23
2022/01/06 01:23:59;;;;;;;;;;;;;;;;;;999397;29;998;-23
2022/01/06 01:24:29;;;;;;;;;;;;;;;;;;999808;29;782;-23
2022/01/06 01:24:59;;;;;;;;;;;;;;;;;;1003753;29;851;-24
2022/01/06 01:25:30;;;;;;;;;;;;;;;;;;1003802;29;908;-23
2022/01/06 01:26:00;;;;;;;;;;;;;;;;;;1003543;29;865;-23
2022/01/06 01:26:30;;;;;;;;;;;;;;;;;;1003906;29;800;-23
2022/01/06 01:27:01;;;;;;;;;;;;;;;;;;1003662;29;900;-23
2022/01/06 01:27:36;;;;;;;;;;;;;;;;;;1003965;29;955;-23
2022/01/06 01:28:07;;;;;;;;;;;;;;;;;;1003688;29;844;-23
2022/01/06 01:28:44;;;;;;;;;;;;;;;;;;1003855;29;1279;-23
2022/01/06 01:29:18;;;;;;;;;;;;;;;;;;1003654;29;974;-23
2022/01/06 01:30:03;;;;;;;;;;;;;;;;;;1003823;29;1611;-23
2022/01/06 01:30:40;;;;;;;;;;;;;;;;;;1003834;29;832;-23
2022/01/06 01:31:47;;;;;;;;;;;;;;;;;;1003835;29;911;-23
2022/01/06 01:32:17;;;;;;;;;;;;;;;;;;1003647;29;821;-23
2022/01/06 01:32:51;;;;;;;;;;;;;;;;;;1003869;29;891;-23
2022/01/06 01:33:21;;;;;;;;;;;;;;;;;;1003695;29;1008;-23
2022/01/06 01:33:55;;;;;;;;;;;;;;;;;;1003877;29;672;-23
2022/01/06 01:34:27;;;;;;;;;;;;;;;;;;1003717;29;789;-23
2022/01/06 01:35:01;;;;;;;;;;;;;;;;;;1003641;29;864;-23
2022/01/06 01:35:32;;;;;;;;;;;;;;;;;;1003952;29;920;-23
2022/01/06 01:36:02;;;;;;;;;;;;;;;;;;1003380;29;1923;-23
2022/01/06 01:36:33;;;;;;;;;;;;;;;;;;1003905;29;872;-23
2022/01/06 01:37:03;;;;;;;;;;;;;;;;;;1003656;29;915;-23
2022/01/06 01:37:34;;;;;;;;;;;;;;;;;;1003907;29;943;-23
2022/01/06 01:38:05;;;;;;;;;;;;;;;;;;1003708;29;851;-23
2022/01/06 01:38:37;;;;;;;;;;;;;;;;;;1003792;29;893;-23
2022/01/06 01:39:07;;;;;;;;;;;;;;;;;;1003786;29;918;-23
2022/01/06 01:39:37;;;;;;;;;;;;;;;;;;1003864;29;884;-23
2022/01/06 01:40:09;;;;;;;;;;;;;;;;;;1003738;29;896;-24
2022/01/06 01:40:40;;;;;;;;;;;;;;;;;;1003781;29;903;-23
2022/01/06 01:41:10;;;;;;;;;;;;;;;;;;1003743;29;876;-23
2022/01/06 01:41:41;;;;;;;;;;;;;;;;;;1003883;29;946;-23
2022/01/06 01:42:13;;;;;;;;;;;;;;;;;;1003699;29;887;-23
2022/01/06 01:42:43;;;;;;;;;;;;;;;;;;1003705;29;907;-23
2022/01/06 01:43:14;;;;;;;;;;;;;;;;;;1003787;29;816;-23
2022/01/06 01:43:46;;;;;;;;;;;;;;;;;;1003774;29;920;-23
2022/01/06 01:44:19;;;;;;;;;;;;;;;;;;1003624;29;840;-23
2022/01/06 01:44:51;;;;;;;;;;;;;;;;;;1003839;29;1687;-23
2022/01/06 01:45:27;;;;;;;;;;;;;;;;;;1003692;29;884;-23
2022/01/06 01:46:07;;;;;;;;;;;;;;;;;;1003702;29;924;-23
2022/01/06 01:46:43;;;;;;;;;;;;;;;;;;1003633;29;1177;-23
2022/01/06 01:47:15;;;;;;;;;;;;;;;;;;1003724;29;884;-23
2022/01/06 01:47:46;;;;;;;;;;;;;;;;;;1003732;29;880;-23
2022/01/06 01:48:24;;;;;;;;;;;;;;;;;;1003717;29;923;-23
2022/01/06 01:49:27;;;;;;;;;;;;;;;;;;1003691;29;935;-23
2022/01/06 01:50:12;;;;;;;;;;;;;;;;;;1003726;29;943;-23
2022/01/06 01:50:42;;;;;;;;;;;;;;;;;;1003790;29;1009;-23
2022/01/06 01:51:13;;;;;;;;;;;;;;;;;;1003659;29;970;-23
2022/01/06 01:51:44;;;;;;;;;;;;;;;;;;1003712;29;902;-23
2022/01/06 01:52:14;;;;;;;;;;;;;;;;;;1003735;29;539;-23
2022/01/06 01:52:45;;;;;;;;;;;;;;;;;;1003739;29;784;-23
2022/01/06 01:53:16;;;;;;;;;;;;;;;;;;1003596;29;935;-23
2022/01/06 01:53:46;;;;;;;;;;;;;;;;;;1003905;29;872;-23
2022/01/06 01:54:16;;;;;;;;;;;;;;;;;;1003625;29;880;-23
2022/01/06 01:54:47;;;;;;;;;;;;;;;;;;1004193;29;990;-23
2022/01/06 01:55:19;;;;;;;;;;;;;;;;;;1004380;29;1134;-23
2022/01/06 01:55:50;;;;;;;;;;;;;;;;;;1004333;29;1985;-23
2022/01/06 01:56:20;;;;;;;;;;;;;;;;;;1004421;29;907;-23
2022/01/06 01:56:51;;;;;;;;;;;;;;;;;;1004656;29;1025;-23
2022/01/06 01:57:21;;;;;;;;;;;;;;;;;;1004291;29;923;-23
2022/01/06 01:57:52;;;;;;;;;;;;;;;;;;1004623;29;946;-23
2022/01/06 01:58:22;;;;;;;;;;;;;;;;;;1004369;29;844;-23
2022/01/06 01:58:53;;;;;;;;;;;;;;;;;;1004595;29;1061;-23
2022/01/06 01:59:23;;;;;;;;;;;;;;;;;;1004362;29;911;-23
2022/01/06 01:59:53;;;;;;;;;;;;;;;;;;1004566;29;774;-23
2022/01/06 02:00:25;;;;;;;;;;;;;;;;;;1004479;29;840;-23
2022/01/06 02:00:56;;;;;;;;;;;;;;;;;;1004485;29;903;-23
2022/01/06 02:01:26;;;;;;;;;;;;;;;;;;1000161;29;1393;-23
2022/01/06 02:01:57;;;;;;;;;;;;;;;;;;1000307;29;896;-23
2022/01/06 02:02:28;;;;;;;;;;;;;;;;;;1000269;29;844;-23
2022/01/06 02:02:58;;;;;;;;;;;;;;;;;;1000529;29;880;-23
2022/01/06 02:03:28;;;;;;;;;;;;;;;;;;1004385;29;931;-23
2022/01/06 02:03:59;;;;;;;;;;;;;;;;;;1004447;29;967;-23
2022/01/06 02:04:30;;;;;;;;;;;;;;;;;;1004368;29;884;-23
2022/01/06 02:05:00;;;;;;;;;;;;;;;;;;1004584;29;946;-24
2022/01/06 02:05:31;;;;;;;;;;;;;;;;;;1004305;29;974;-23
2022/01/06 02:06:01;;;;;;;;;;;;;;;;;;1004491;29;892;-23
2022/01/06 02:06:31;;;;;;;;;;;;;;;;;;1004297;29;856;-23
2022/01/06 02:07:03;;;;;;;;;;;;;;;;;;1004639;29;797;-23
2022/01/06 02:07:33;;;;;;;;;;;;;;;;;;1004267;29;872;-23
2022/01/06 02:08:05;;;;;;;;;;;;;;;;;;1004543;29;876;-23
2022/01/06 02:08:35;;;;;;;;;;;;;;;;;;1002870;29;1146;-23
2022/01/06 02:09:06;;;;;;;;;;;;;;;;;;1003847;29;1075;-23
2022/01/06 02:09:36;;;;;;;;;;;;;;;;;;1004310;29;1045;-23
2022/01/06 02:10:08;;;;;;;;;;;;;;;;;;1004480;29;872;-23
2022/01/06 02:10:38;;;;;;;;;;;;;;;;;;1004191;29;808;-23
2022/01/06 02:11:09;;;;;;;;;;;;;;;;;;1004635;29;797;-23
2022/01/06 02:11:39;;;;;;;;;;;;;;;;;;1004368;29;813;-23
2022/01/06 02:12:10;;;;;;;;;;;;;;;;;;1004314;29;920;-23
2022/01/06 02:12:42;;;;;;;;;;;;;;;;;;1004418;29;931;-23
2022/01/06 02:13:13;;;;;;;;;;;;;;;;;;1004328;29;820;-23
2022/01/06 02:13:47;;;;;;;;;;;;;;;;;;1004513;29;797;-23
2022/01/06 02:14:17;;;;;;;;;;;;;;;;;;1000312;29;1150;-23
2022/01/06 02:14:48;;;;;;;;;;;;;;;;;;1007996;29;887;-23
2022/01/06 02:15:18;;;;;;;;;;;;;;;;;;1004136;29;950;-23
2022/01/06 02:15:48;;;;;;;;;;;;;;;;;;1003779;29;1903;-23
2022/01/06 02:16:22;;;;;;;;;;;;;;;;;;1007946;29;971;-23
2022/01/06 02:16:54;;;;;;;;;;;;;;;;;;1007954;29;816;-23
2022/01/06 02:17:25;;;;;;;;;;;;;;;;;;1008306;29;919;-23
2022/01/06 02:17:55;;;;;;;;;;;;;;;;;;1008322;29;883;-23
2022/01/06 02:18:27;;;;;;;;;;;;;;;;;;1008111;29;1133;-24
2022/01/06 02:18:58;;;;;;;;;;;;;;;;;;1008238;29;1006;-23
2022/01/06 02:19:28;;;;;;;;;;;;;;;;;;1008279;29;888;-23
2022/01/06 02:19:59;;;;;;;;;;;;;;;;;;1008254;29;975;-23
2022/01/06 02:20:29;;;;;;;;;;;;;;;;;;1008185;29;975;-23
2022/01/06 02:21:00;;;;;;;;;;;;;;;;;;1008264;29;923;-23
2022/01/06 02:21:30;;;;;;;;;;;;;;;;;;1008280;29;899;-23
2022/01/06 02:22:00;;;;;;;;;;;;;;;;;;1008207;29;916;-23
2022/01/06 02:22:31;;;;;;;;;;;;;;;;;;1008096;29;1559;-23
2022/01/06 02:23:01;;;;;;;;;;;;;;;;;;1008354;29;938;-23
2022/01/06 02:23:31;;;;;;;;;;;;;;;;;;1008112;29;982;-23
2022/01/06 02:24:02;;;;;;;;;;;;;;;;;;1008370;29;879;-23
2022/01/06 02:24:32;;;;;;;;;;;;;;;;;;1008154;29;971;-23
2022/01/06 02:25:16;;;;;;;;;;;;;;;;;;1008259;29;896;-23
2022/01/06 02:25:47;;;;;;;;;;;;;;;;;;1008181;29;809;-23
2022/01/06 02:26:17;;;;;;;;;;;;;;;;;;1008116;29;954;-27
2022/01/06 02:26:47;;;;;;;;;;;;;;;;;;1008219;29;987;-23
2022/01/06 02:27:21;;;;;;;;;;;;;;;;;;1008245;29;888;-23
2022/01/06 02:27:52;;;;;;;;;;;;;;;;;;1008199;29;813;-23
2022/01/06 02:28:22;;;;;;;;;;;;;;;;;;1008281;29;1325;-23
2022/01/06 02:28:53;;;;;;;;;;;;;;;;;;1008040;29;868;-23
2022/01/06 02:29:23;;;;;;;;;;;;;;;;;;1008251;29;1033;-23
2022/01/06 02:29:53;;;;;;;;;;;;;;;;;;1003985;29;1298;-23
2022/01/06 02:30:25;;;;;;;;;;;;;;;;;;1004082;29;1050;-23
2022/01/06 02:30:57;;;;;;;;;;;;;;;;;;1003959;29;859;-23
2022/01/06 02:31:28;;;;;;;;;;;;;;;;;;1004441;29;967;-23
2022/01/06 02:31:58;;;;;;;;;;;;;;;;;;1008140;29;931;-23
2022/01/06 02:32:29;;;;;;;;;;;;;;;;;;1008320;29;1312;-23
2022/01/06 02:33:03;;;;;;;;;;;;;;;;;;1008132;29;947;-23
2022/01/06 02:33:33;;;;;;;;;;;;;;;;;;1008194;29;986;-23
2022/01/06 02:34:05;;;;;;;;;;;;;;;;;;1008217;29;839;-23
2022/01/06 02:34:35;;;;;;;;;;;;;;;;;;1008159;29;844;-23
2022/01/06 02:35:11;;;;;;;;;;;;;;;;;;1008230;29;946;-23
2022/01/06 02:35:41;;;;;;;;;;;;;;;;;;1008055;29;1911;-23
2022/01/06 02:36:11;;;;;;;;;;;;;;;;;;1008255;29;836;-23
2022/01/06 02:36:42;;;;;;;;;;;;;;;;;;1008216;29;963;-23
2022/01/06 02:37:13;;;;;;;;;;;;;;;;;;1008050;29;923;-23
2022/01/06 02:37:44;;;;;;;;;;;;;;;;;;1008203;29;1399;-23
2022/01/06 02:38:15;;;;;;;;;;;;;;;;;;1008132;29;765;-23
2022/01/06 02:38:45;;;;;;;;;;;;;;;;;;1008259;29;927;-23
2022/01/06 02:39:15;;;;;;;;;;;;;;;;;;1008125;29;840;-23
2022/01/06 02:39:46;;;;;;;;;;;;;;;;;;1008225;29;835;-23
2022/01/06 02:40:18;;;;;;;;;;;;;;;;;;1008098;29;935;-23
2022/01/06 02:40:48;;;;;;;;;;;;;;;;;;1008169;29;864;-23
2022/01/06 02:41:19;;;;;;;;;;;;;;;;;;1008104;29;911;-23
2022/01/06 02:41:49;;;;;;;;;;;;;;;;;;1008174;29;915;-23
2022/01/06 02:42:20;;;;;;;;;;;;;;;;;;1008127;29;833;-23
2022/01/06 02:42:52;;;;;;;;;;;;;;;;;;1008198;29;990;-23
2022/01/06 02:43:23;;;;;;;;;;;;;;;;;;1008030;29;908;-23
2022/01/06 02:43:55;;;;;;;;;;;;;;;;;;1008200;29;903;-23
2022/01/06 02:44:26;;;;;;;;;;;;;;;;;;1008283;29;824;-23
2022/01/06 02:44:56;;;;;;;;;;;;;;;;;;1007996;29;978;-23
2022/01/06 02:45:28;;;;;;;;;;;;;;;;;;1008154;29;927;-23
2022/01/06 02:45:58;;;;;;;;;;;;;;;;;;1008049;29;918;-23
2022/01/06 02:46:28;;;;;;;;;;;;;;;;;;1008140;29;935;-23
2022/01/06 02:46:59;;;;;;;;;;;;;;;;;;1008373;29;909;-23
2022/01/06 02:47:29;;;;;;;;;;;;;;;;;;1007986;29;863;-23
2022/01/06 02:48:00;;;;;;;;;;;;;;;;;;1008297;29;932;-23
2022/01/06 02:48:31;;;;;;;;;;;;;;;;;;1008130;29;915;-23
2022/01/06 02:49:01;;;;;;;;;;;;;;;;;;1008266;29;1014;-23
2022/01/06 02:49:32;;;;;;;;;;;;;;;;;;1008076;29;914;-23
2022/01/06 02:50:03;;;;;;;;;;;;;;;;;;1008247;29;863;-23
2022/01/06 02:50:38;;;;;;;;;;;;;;;;;;1008037;29;896;-23
2022/01/06 02:51:08;;;;;;;;;;;;;;;;;;1008146;29;1698;-23
2022/01/06 02:51:40;;;;;;;;;;;;;;;;;;1008121;29;974;-23
2022/01/06 02:52:11;;;;;;;;;;;;;;;;;;1008125;29;922;-23
2022/01/06 02:52:41;;;;;;;;;;;;;;;;;;1008212;29;800;-23
2022/01/06 02:53:12;;;;;;;;;;;;;;;;;;1008229;29;868;-23
2022/01/06 02:53:42;;;;;;;;;;;;;;;;;;1008146;29;967;-23
2022/01/06 02:54:13;;;;;;;;;;;;;;;;;;1008040;29;820;-23
2022/01/06 02:54:43;;;;;;;;;;;;;;;;;;1008192;29;656;-23
2022/01/06 02:55:14;;;;;;;;;;;;;;;;;;1007965;29;990;-23
2022/01/06 02:55:50;;;;;;;;;;;;;;;;;;1007980;29;1970;-23
2022/01/06 02:56:20;;;;;;;;;;;;;;;;;;1008134;29;939;-23
2022/01/06 02:56:52;;;;;;;;;;;;;;;;;;1008092;29;880;-24
2022/01/06 02:57:22;;;;;;;;;;;;;;;;;;1008260;29;844;-23
2022/01/06 02:57:52;;;;;;;;;;;;;;;;;;1008076;29;792;-23
2022/01/06 02:58:23;;;;;;;;;;;;;;;;;;1008103;29;983;-23
2022/01/06 02:58:53;;;;;;;;;;;;;;;;;;1008127;29;935;-23
2022/01/06 02:59:23;;;;;;;;;;;;;;;;;;1008107;29;1145;-23
2022/01/06 02:59:54;;;;;;;;;;;;;;;;;;1008158;29;935;-23
2022/01/06 03:00:24;;;;;;;;;;;;;;;;;;1008168;29;873;-23
2022/01/06 03:00:54;;;;;;;;;;;;;;;;;;1007989;29;808;-23
2022/01/06 03:01:25;;;;;;;;;;;;;;;;;;1008236;29;927;-23
2022/01/06 03:01:55;;;;;;;;;;;;;;;;;;1007964;29;954;-23
2022/01/06 03:02:26;;;;;;;;;;;;;;;;;;1008126;29;907;-23
2022/01/06 03:02:57;;;;;;;;;;;;;;;;;;1008150;29;808;-23
2022/01/06 03:03:27;;;;;;;;;;;;;;;;;;1008103;29;876;-23
2022/01/06 03:03:57;;;;;;;;;;;;;;;;;;1008133;29;875;-23
2022/01/06 03:04:27;;;;;;;;;;;;;;;;;;1008124;29;947;-23
2022/01/06 03:04:58;;;;;;;;;;;;;;;;;;1008002;29;891;-23
2022/01/06 03:05:28;;;;;;;;;;;;;;;;;;1008226;29;938;-23
2022/01/06 03:05:58;;;;;;;;;;;;;;;;;;1007923;29;792;-23
2022/01/06 03:06:29;;;;;;;;;;;;;;;;;;1007542;29;974;-23
2022/01/06 03:07:01;;;;;;;;;;;;;;;;;;1008134;29;888;-23
2022/01/06 03:07:31;;;;;;;;;;;;;;;;;;1008019;29;975;-23
2022/01/06 03:08:02;;;;;;;;;;;;;;;;;;1008245;29;741;-23
2022/01/06 03:08:34;;;;;;;;;;;;;;;;;;1007986;29;859;-23
2022/01/06 03:09:05;;;;;;;;;;;;;;;;;;1007952;29;1627;-23
2022/01/06 03:09:40;;;;;;;;;;;;;;;;;;1008141;29;962;-23
2022/01/06 03:10:13;;;;;;;;;;;;;;;;;;1008027;29;932;-23
2022/01/06 03:10:44;;;;;;;;;;;;;;;;;;1008073;29;951;-23
2022/01/06 03:11:15;;;;;;;;;;;;;;;;;;1007990;29;930;-23
2022/01/06 03:11:45;;;;;;;;;;;;;;;;;;1003923;29;940;-23
2022/01/06 03:12:23;;;;;;;;;;;;;;;;;;1003948;29;881;-23
2022/01/06 03:12:54;;;;;;;;;;;;;;;;;;1003739;29;900;-23
2022/01/06 03:13:24;;;;;;;;;;;;;;;;;;1003903;29;939;-28
2022/01/06 03:13:55;;;;;;;;;;;;;;;;;;1004983;29;797;-24
2022/01/06 03:14:25;;;;;;;;;;;;;;;;;;1008135;29;1184;-23
2022/01/06 03:14:56;;;;;;;;;;;;;;;;;;1007855;29;951;-23
2022/01/06 03:15:26;;;;;;;;;;;;;;;;;;1008201;29;962;-23
2022/01/06 03:15:57;;;;;;;;;;;;;;;;;;1007797;29;1959;-23
2022/01/06 03:16:27;;;;;;;;;;;;;;;;;;1008122;29;835;-23
2022/01/06 03:16:58;;;;;;;;;;;;;;;;;;1007911;29;948;-23
2022/01/06 03:17:28;;;;;;;;;;;;;;;;;;1008209;29;860;-23
2022/01/06 03:17:58;;;;;;;;;;;;;;;;;;1008037;29;824;-23
2022/01/06 03:18:29;;;;;;;;;;;;;;;;;;1008047;29;1286;-23
2022/01/06 03:19:00;;;;;;;;;;;;;;;;;;1007955;29;825;-23
2022/01/06 03:19:30;;;;;;;;;;;;;;;;;;1007981;29;1469;-23
2022/01/06 03:20:02;;;;;;;;;;;;;;;;;;1008058;29;887;-23
2022/01/06 03:20:34;;;;;;;;;;;;;;;;;;1007946;29;927;-23
2022/01/06 03:21:04;;;;;;;;;;;;;;;;;;1008082;29;896;-23
2022/01/06 03:21:34;;;;;;;;;;;;;;;;;;1007965;29;1021;-23
2022/01/06 03:22:05;;;;;;;;;;;;;;;;;;1007984;29;804;-23
2022/01/06 03:22:35;;;;;;;;;;;;;;;;;;1008105;29;852;-24
2022/01/06 03:23:05;;;;;;;;;;;;;;;;;;1007974;29;985;-23
2022/01/06 03:23:36;;;;;;;;;;;;;;;;;;1007975;29;939;-23
2022/01/06 03:24:06;;;;;;;;;;;;;;;;;;1008009;29;908;-23
2022/01/06 03:24:37;;;;;;;;;;;;;;;;;;1008044;29;900;-23
2022/01/06 03:25:08;;;;;;;;;;;;;;;;;;1008063;29;833;-23
2022/01/06 03:25:38;;;;;;;;;;;;;;;;;;1008075;29;817;-23
2022/01/06 03:26:09;;;;;;;;;;;;;;;;;;1007761;29;864;-23
2022/01/06 03:26:39;;;;;;;;;;;;;;;;;;1008123;29;812;-23
2022/01/06 03:27:10;;;;;;;;;;;;;;;;;;1007926;29;864;-23
2022/01/06 03:27:41;;;;;;;;;;;;;;;;;;1008161;29;856;-23
2022/01/06 03:28:11;;;;;;;;;;;;;;;;;;1007853;29;1219;-23
2022/01/06 03:28:42;;;;;;;;;;;;;;;;;;1008140;29;877;-23
2022/01/06 03:29:12;;;;;;;;;;;;;;;;;;1007878;29;919;-23
2022/01/06 03:29:43;;;;;;;;;;;;;;;;;;1008056;29;911;-23
2022/01/06 03:30:14;;;;;;;;;;;;;;;;;;1007883;29;978;-23
2022/01/06 03:30:45;;;;;;;;;;;;;;;;;;1008083;29;1354;-23
2022/01/06 03:31:15;;;;;;;;;;;;;;;;;;1007807;29;884;-23
2022/01/06 03:31:45;;;;;;;;;;;;;;;;;;1008097;29;959;-23
2022/01/06 03:32:19;;;;;;;;;;;;;;;;;;1007843;29;924;-23
2022/01/06 03:32:50;;;;;;;;;;;;;;;;;;1007900;29;848;-23
2022/01/06 03:33:20;;;;;;;;;;;;;;;;;;1008166;29;896;-23
2022/01/06 03:33:51;;;;;;;;;;;;;;;;;;1007740;29;971;-23
2022/01/06 03:34:21;;;;;;;;;;;;;;;;;;1008112;29;864;-23
2022/01/06 03:34:52;;;;;;;;;;;;;;;;;;1007829;29;923;-23
2022/01/06 03:35:23;;;;;;;;;;;;;;;;;;1008051;29;959;-23
2022/01/06 03:35:53;;;;;;;;;;;;;;;;;;1007728;29;1984;-23
2022/01/06 03:36:24;;;;;;;;;;;;;;;;;;1008045;29;880;-23
2022/01/06 03:36:54;;;;;;;;;;;;;;;;;;1007997;29;805;-23
2022/01/06 03:37:25;;;;;;;;;;;;;;;;;;1007994;29;935;-23
2022/01/06 03:37:55;;;;;;;;;;;;;;;;;;1007746;29;855;-23
2022/01/06 03:38:25;;;;;;;;;;;;;;;;;;1008056;29;923;-23
2022/01/06 03:38:56;;;;;;;;;;;;;;;;;;1007852;29;900;-23
2022/01/06 03:39:26;;;;;;;;;;;;;;;;;;1008038;29;891;-23
2022/01/06 03:39:57;;;;;;;;;;;;;;;;;;1007927;29;862;-23
2022/01/06 03:40:27;;;;;;;;;;;;;;;;;;1007963;29;935;-23
2022/01/06 03:40:57;;;;;;;;;;;;;;;;;;1007890;29;934;-23
2022/01/06 03:41:28;;;;;;;;;;;;;;;;;;1008084;29;911;-23
2022/01/06 03:41:59;;;;;;;;;;;;;;;;;;1007867;29;903;-23
2022/01/06 03:42:29;;;;;;;;;;;;;;;;;;1007939;29;870;-23
2022/01/06 03:43:00;;;;;;;;;;;;;;;;;;1007933;29;792;-23
2022/01/06 03:43:30;;;;;;;;;;;;;;;;;;1008010;29;835;-23
2022/01/06 03:44:01;;;;;;;;;;;;;;;;;;1007972;29;875;-23
2022/01/06 03:44:31;;;;;;;;;;;;;;;;;;1007781;29;923;-23
2022/01/06 03:45:03;;;;;;;;;;;;;;;;;;1008016;29;868;-23
2022/01/06 03:45:34;;;;;;;;;;;;;;;;;;1007899;29;951;-23
2022/01/06 03:46:04;;;;;;;;;;;;;;;;;;1007885;29;887;-23
2022/01/06 03:46:34;;;;;;;;;;;;;;;;;;1007978;29;867;-23
2022/01/06 03:47:05;;;;;;;;;;;;;;;;;;1007860;29;997;-23
2022/01/06 03:47:36;;;;;;;;;;;;;;;;;;1008064;29;959;-23
2022/01/06 03:48:06;;;;;;;;;;;;;;;;;;1007936;29;884;-23
2022/01/06 03:48:36;;;;;;;;;;;;;;;;;;1003673;29;824;-23
2022/01/06 03:49:07;;;;;;;;;;;;;;;;;;1003780;29;978;-23